KMSN/MSN METAR and TAF weather

Enter ICAO airport designator
Station Type Date Time Source
KMSN METAR 2019/12/10 02:53 UTC NOAA

KMSN 100253Z 30009G23KT 10SM OVC023 M05/M09 A2972 RMK AO2 SLP074 T10501089 51046


Station Type Date Time Source
KMSN Decoded METAR 2019/12/10 02:53 UTC NOAA

MADISON DANE COUNTY RGNL, WI, United States (KMSN) 43-08N 89-21W 261M
Dec 09, 2019 - 09:53 PM EST / 2019.12.10 0253 UTC
Wind: from the WNW (300 degrees) at 10 MPH (9 KT) gusting to 26 MPH (23 KT):0
Visibility: 10 mile(s):0
Sky conditions: overcast
Temperature: 23.0 F (-5.0 C)
Windchill: 12 F (-11 C):1
Dew Point: 16.0 F (-8.9 C)
Relative Humidity: 74%
Pressure (altimeter): 29.72 in. Hg (1006 hPa)
Pressure tendency: 0.14 inches (4.6 hPa) higher than three hours ago
ob: KMSN 100253Z 30009G23KT 10SM OVC023 M05/M09 A2972 RMK AO2 SLP074 T10501089 51046
cycle: 3

Station Type Date Time Source
KMSN TAF 2019/12/09 21:16 UTC NOAA

TAF
AMD KMSN 092114Z 0921/1018 27011G22KT P6SM -SNRA SCT008 OVC016
FM092300 29016G29KT 6SM BR VCSH BKN010
FM100500 30014G22KT P6SM BKN018
FM100600 30014KT P6SM BKN030
FM101000 29012KT P6SM SCT050

Example: see airport list